Data for 06/04/2010

Time Sea-Level Adjusted Pressure Absolute Pressure Temperature Relative Humidity Dew Point   
(mb) (inHg) (mb) (inHg) (C) (F) (%) (C) (F)
00:05 1014 29.94 843 24.89 11.7 53.1 66 5.6 42.1
00:10 1014 29.94 843 24.89 11.7 53 65 5.5 41.8
00:15 1014 29.94 843 24.89 11.6 52.8 66 5.5 41.9
00:20 1013 29.91 843 24.89 11.4 52.6 67 5.6 42.1
00:25 1013 29.91 843 24.89 11.3 52.3 68 5.7 42.3
00:30 1013 29.91 843 24.89 11.1 52 66 5.1 41.2
00:35 1013 29.91 842 24.86 11.2 52.2 65 4.9 40.9
00:40 1013 29.91 842 24.86 11.3 52.4 66 5.1 41.3
00:45 1013 29.91 842 24.86 11.3 52.3 67 5.3 41.6
00:50 1013 29.91 842 24.86 11 51.8 68 5.3 41.6
00:55 1013 29.91 842 24.86 10.9 51.6 68 5.3 41.5
01:00 1013 29.91 842 24.86 10.8 51.4 69 5.3 41.5
01:05 1013 29.91 842 24.86 10.6 51.1 67 4.8 40.6
01:10 1013 29.91 842 24.86 10.4 50.8 69 5.1 41.2
01:15 1013 29.91 842 24.86 10.3 50.5 70 5.1 41.2
01:20 1013 29.91 842 24.86 10.2 50.3 72 5.4 41.7
01:25 1013 29.91 842 24.86 10 50 72 5.3 41.5
01:30 1013 29.91 842 24.86 9.9 49.9 71 5 41
01:35 1013 29.91 842 24.86 9.9 49.9 71 5 41.1
01:40 1013 29.91 842 24.86 9.9 49.8 72 5.1 41.2
01:45 1013 29.91 842 24.86 10 50 70 4.8 40.6
01:50 1013 29.91 842 24.86 10 50.1 71 5 40.9
01:55 1013 29.91 842 24.86 9.9 49.8 73 5.4 41.6
02:00 1013 29.91 842 24.86 9.4 48.9 75 5.2 41.4
02:05 1013 29.91 842 24.86 9.1 48.3 77 5.2 41.4
02:10 1013 29.91 842 24.86 8.8 47.8 77 5 41.1
02:15 1013 29.91 842 24.86 8.8 47.9 76 4.8 40.6
02:20 1013 29.91 842 24.86 9 48.2 75 4.8 40.7
02:25 1013 29.91 842 24.86 9 48.2 75 4.9 40.8
02:30 1013 29.91 842 24.86 8.7 47.7 77 4.9 40.8
02:35 1013 29.91 842 24.86 8.6 47.4 77 4.9 40.7
02:40 1013 29.91 842 24.86 8.4 47.1 79 5 41
02:45 1013 29.91 842 24.86 8.2 46.8 79 4.9 40.8
02:50 1013 29.91 842 24.86 8.2 46.7 80 4.9 40.7
02:55 1013 29.91 842 24.86 8.1 46.5 79 4.6 40.3
03:00 1013 29.91 842 24.86 8 46.4 79 4.5 40.1
03:05 1013 29.91 842 24.86 8.1 46.5 77 4.3 39.8
03:10 1013 29.91 842 24.86 8.1 46.5 78 4.5 40
03:15 1013 29.91 842 24.86 7.9 46.1 79 4.4 39.9
03:20 1013 29.91 842 24.86 7.9 46.1 79 4.4 39.9
03:25 1013 29.91 842 24.86 7.8 46.1 78 4.2 39.6
03:30 1013 29.91 842 24.86 7.9 46.1 78 4.3 39.7
03:35 1013 29.91 842 24.86 7.8 46.1 78 4.2 39.5
03:40 1013 29.91 842 24.86 7.8 46.1 78 4.3 39.7
03:45 1013 29.91 842 24.86 7.7 45.9 79 4.3 39.7
03:50 1013 29.91 842 24.86 7.7 45.8 78 4.2 39.5
03:55 1013 29.91 842 24.86 7.7 45.8 79 4.2 39.6
04:00 1013 29.91 842 24.86 7.7 45.9 78 4.2 39.5
04:05 1013 29.91 842 24.86 7.8 46.1 78 4.3 39.7
04:10 1013 29.91 842 24.86 7.7 45.9 79 4.3 39.7
04:15 1013 29.91 842 24.86 7.8 46 79 4.3 39.7
04:20 1013 29.91 842 24.86 7.8 46 78 4.3 39.7
04:25 1013 29.91 842 24.86 7.8 46.1 78 4.2 39.5
04:30 1013 29.91 842 24.86 8 46.3 77 4.3 39.7
04:35 1013 29.91 842 24.86 8 46.4 76 4 39.3
04:40 1013 29.91 842 24.86 8.2 46.7 75 4.1 39.3
04:45 1013 29.91 842 24.86 8.2 46.8 76 4.2 39.6
04:50 1013 29.91 842 24.86 8.2 46.8 76 4.3 39.7
04:55 1013 29.91 842 24.86 8.3 46.9 77 4.5 40.1
05:00 1013 29.91 842 24.86 8.3 46.9 77 4.4 40
05:05 1013 29.91 842 24.86 8.2 46.8 78 4.6 40.3
05:10 1013 29.91 842 24.86 8.1 46.5 79 4.7 40.4
05:15 1013 29.91 842 24.86 7.9 46.2 79 4.5 40
05:20 1013 29.91 842 24.86 7.9 46.3 79 4.4 40
05:25 1012 29.88 842 24.86 8 46.3 79 4.5 40.1
05:30 1012 29.88 842 24.86 8 46.3 78 4.5 40
05:35 1013 29.91 842 24.86 8 46.3 78 4.4 40
05:40 1013 29.91 842 24.86 8 46.4 79 4.5 40.2
05:45 1012 29.88 842 24.86 8 46.4 78 4.5 40.1
05:50 1012 29.88 842 24.86 8 46.4 79 4.5 40.2
05:55 1012 29.88 841 24.83 8 46.5 79 4.6 40.2
06:00 1012 29.88 841 24.83 8.1 46.6 79 4.7 40.4
06:05 1012 29.88 841 24.83 8.1 46.6 78 4.6 40.2
06:10 1012 29.88 841 24.83 8.1 46.5 79 4.6 40.2
06:15 1012 29.88 841 24.83 8 46.5 80 4.7 40.5
06:20 1012 29.88 841 24.83 8.1 46.5 79 4.7 40.4
06:25 1012 29.88 841 24.83 8.1 46.6 78 4.6 40.3
06:30 1012 29.88 841 24.83 8.2 46.8 77 4.5 40.2
06:35 1011 29.85 841 24.83 8.4 47 79 4.9 40.8
06:40 1011 29.85 841 24.83 8.3 46.9 80 5.1 41.1
06:45 1011 29.85 841 24.83 8.3 46.9 80 5 41
06:50 1011 29.85 841 24.83 8.2 46.8 80 4.9 40.9
06:55 1012 29.88 841 24.83 8.4 47 78 4.8 40.7
07:00 1012 29.88 841 24.83 8.5 47.3 76 4.6 40.2
07:05 1012 29.88 841 24.83 8.7 47.7 75 4.5 40.2
07:10 1012 29.88 841 24.83 9 48.2 73 4.5 40.1
07:15 1012 29.88 841 24.83 9.2 48.6 73 4.7 40.4
07:20 1012 29.88 841 24.83 9.4 48.9 71 4.3 39.8
07:25 1012 29.88 841 24.83 9.6 49.3 70 4.5 40.1
07:30 1012 29.88 841 24.83 9.8 49.6 70 4.6 40.3
07:35 1012 29.88 841 24.83 9.7 49.5 72 4.9 40.8
07:40 1012 29.88 841 24.83 9.6 49.2 72 4.9 40.8
07:45 1012 29.88 841 24.83 9.6 49.3 73 5.1 41.2
07:50 1012 29.88 841 24.83 9.8 49.6 73 5.3 41.5
07:55 1011 29.85 841 24.83 10 50 71 4.9 40.9
08:00 1011 29.85 841 24.83 10.2 50.4 71 5.2 41.4
08:05 1011 29.85 841 24.83 10.4 50.7 69 5 40.9
08:10 1011 29.85 840 24.81 10.7 51.2 69 5.2 41.4
08:15 1011 29.85 840 24.81 10.8 51.4 68 5.2 41.3
08:20 1011 29.85 841 24.83 10.8 51.5 67 4.9 40.8
08:25 1011 29.85 840 24.81 11 51.8 67 5.2 41.4
08:30 1011 29.85 840 24.81 11.2 52.2 66 5.1 41.2
08:35 1011 29.85 840 24.81 11.4 52.5 67 5.5 41.8
08:40 1011 29.85 840 24.81 11.7 53 68 6 42.9
08:45 1011 29.85 841 24.83 11.8 53.3 67 5.9 42.6
08:50 1012 29.88 841 24.83 12 53.5 66 5.8 42.5
08:55 1012 29.88 841 24.83 12 53.6 65 5.8 42.4
09:00 1012 29.88 841 24.83 12 53.5 67 6.1 43
09:05 1012 29.88 841 24.83 12.2 53.9 69 6.6 43.9
09:10 1012 29.88 841 24.83 11.9 53.4 69 6.5 43.7
09:15 1012 29.88 841 24.83 11.7 53 74 7.1 44.9
09:20 1012 29.88 841 24.83 11.7 53 76 7.6 45.7
09:25 1012 29.88 841 24.83 11.8 53.2 75 7.5 45.5
09:30 1012 29.88 841 24.83 11.6 52.9 76 7.5 45.6
09:35 1012 29.88 841 24.83 11.1 51.9 80 7.7 45.8
09:40 1012 29.88 841 24.83 10.7 51.2 82 7.7 45.9
09:45 1012 29.88 841 24.83 10.4 50.7 86 8.1 46.5
09:50 1012 29.88 841 24.83 10.6 51 85 8.1 46.5
09:55 1012 29.88 841 24.83 10.6 51.2 85 8.3 46.9
10:00 1012 29.88 841 24.83 10.8 51.5 85 8.4 47
10:05 1012 29.88 841 24.83 10.8 51.5 87 8.7 47.7
10:10 1012 29.88 841 24.83 10.7 51.3 82 7.7 45.9
10:15 1012 29.88 841 24.83 10.6 51.1 84 8 46.5
10:20 1012 29.88 841 24.83 10.8 51.4 80 7.5 45.5
10:25 1012 29.88 841 24.83 11 51.8 83 8.3 47
10:30 1012 29.88 841 24.83 11 51.7 79 7.4 45.4
10:35 1012 29.88 841 24.83 10.9 51.6 83 8.1 46.5
10:40 1012 29.88 841 24.83 11 51.7 85 8.6 47.5
10:45 1011 29.85 841 24.83 11.1 51.9 84 8.4 47.1
10:50 1011 29.85 841 24.83 10.8 51.5 82 8 46.3
10:55 1011 29.85 841 24.83 10.7 51.3 84 8.1 46.6
11:00 1011 29.85 841 24.83 10.7 51.3 84 8.2 46.7
11:05 1011 29.85 841 24.83 11 51.7 82 7.9 46.3
11:10 1011 29.85 841 24.83 10.9 51.6 83 8.1 46.6
11:15 1011 29.85 841 24.83 11.1 51.9 83 8.3 46.9
11:20 1011 29.85 841 24.83 11.4 52.5 81 8.2 46.8
11:25 1011 29.85 841 24.83 11.8 53.2 78 8 46.5
11:30 1011 29.85 841 24.83 11.9 53.4 74 7.4 45.3
11:35 1011 29.85 841 24.83 11.7 53.1 76 7.7 45.9
11:40 1011 29.85 841 24.83 11.6 53 79 8.1 46.6
11:45 1011 29.85 841 24.83 11.7 53 78 8 46.4
11:50 1011 29.85 841 24.83 12 53.6 78 8.4 47.1
11:55 1011 29.85 841 24.83 12.2 54 75 7.9 46.3
12:00 1011 29.85 841 24.83 12.4 54.3 75 8.1 46.6
12:05 1011 29.85 841 24.83 12.5 54.4 75 8.2 46.7
12:10 1011 29.85 841 24.83 12.6 54.6 72 7.8 46
12:15 1011 29.85 841 24.83 13 55.5 74 8.5 47.2
12:20 1011 29.85 841 24.83 13.2 55.7 72 8.2 46.8
12:25 1011 29.85 841 24.83 13.6 56.5 70 8.2 46.8
12:30 1011 29.85 841 24.83 13.8 56.8 71 8.7 47.7
12:35 1011 29.85 841 24.83 14.1 57.3 67 8.2 46.8
12:40 1011 29.85 841 24.83 13.9 57.1 66 7.7 45.9
12:45 1011 29.85 840 24.81 14 57.2 67 8.1 46.5
12:50 1011 29.85 840 24.81 14.7 58.4 65 8.1 46.6
12:55 1011 29.85 840 24.81 14.2 57.6 67 8.2 46.8
13:00 1011 29.85 840 24.81 14.7 58.5 63 7.9 46.2
13:05 1011 29.85 840 24.81 15 58.9 67 8.9 47.9
13:10 1011 29.85 840 24.81 15.2 59.4 66 8.9 48.1
13:15 1011 29.85 840 24.81 14.8 58.7 65 8.4 47.1
13:20 1011 29.85 840 24.81 14.7 58.5 67 8.6 47.5
13:25 1011 29.85 840 24.81 14.6 58.2 66 8.4 47.1
13:30 1011 29.85 840 24.81 14.6 58.2 66 8.4 47.1
13:35 1011 29.85 840 24.81 14.5 58.1 66 8.4 47.1
13:40 1011 29.85 840 24.81 14.9 58.7 65 8.3 47
13:45 1011 29.85 840 24.81 14.9 58.8 72 10 49.9
13:50 1011 29.85 840 24.81 14.5 58 74 10 50
13:55 1011 29.85 840 24.81 14 57.1 76 9.8 49.7
14:00 1011 29.85 840 24.81 13.9 57 74 9.3 48.7
14:05 1011 29.85 840 24.81 13.9 57.1 74 9.4 48.9
14:10 1011 29.85 840 24.81 14.3 57.7 77 10.3 50.5
14:15 1011 29.85 840 24.81 14.3 57.7 77 10.4 50.8
14:20 1011 29.85 840 24.81 13.8 56.8 81 10.6 51.1
14:25 1011 29.85 840 24.81 13.8 56.9 82 10.8 51.4
14:30 1011 29.85 840 24.81 14.1 57.4 82 11.1 52
14:35 1011 29.85 840 24.81 13.7 56.6 83 10.9 51.5
14:40 1011 29.85 840 24.81 13.2 55.7 87 11.1 52
14:45 1011 29.85 840 24.81 13.1 55.6 87 11 51.8
14:50 1011 29.85 840 24.81 13 55.4 86 10.8 51.5
14:55 1011 29.85 840 24.81 13.3 56 88 11.5 52.6
15:00 1011 29.85 840 24.81 14 57.2 85 11.6 52.8
15:05 1011 29.85 840 24.81 14.1 57.4 80 10.7 51.2
15:10 1011 29.85 840 24.81 14 57.3 81 10.8 51.4
15:15 1011 29.85 840 24.81 14.1 57.4 80 10.6 51.1
15:20 1011 29.85 840 24.81 14.2 57.6 78 10.5 51
15:25 1011 29.85 840 24.81 14.6 58.3 78 10.9 51.6
15:30 1011 29.85 840 24.81 14.8 58.6 78 11 51.7
15:35 1011 29.85 840 24.81 14.7 58.4 76 10.5 50.9
15:40 1010 29.83 840 24.81 14.6 58.3 73 9.9 49.8
15:45 1010 29.83 839 24.78 14.6 58.3 71 9.5 49.2
15:50 1010 29.83 839 24.78 14.5 58.2 73 9.8 49.6
15:55 1010 29.83 840 24.81 14.7 58.4 73 9.9 49.8
16:00 1010 29.83 840 24.81 14.5 58.1 74 10 49.9
16:05 1010 29.83 840 24.81 14.4 58 74 9.9 49.9
16:10 1010 29.83 840 24.81 14.2 57.6 79 10.7 51.3
16:15 1011 29.85 840 24.81 13.8 56.8 77 9.9 49.8
16:20 1011 29.85 840 24.81 13.6 56.5 80 10.3 50.5
16:25 1011 29.85 840 24.81 13.4 56 84 10.8 51.4
16:30 1011 29.85 840 24.81 13.5 56.2 84 10.9 51.5
16:35 1011 29.85 840 24.81 13.4 56.2 81 10.2 50.4
16:40 1011 29.85 840 24.81 13.3 56 84 10.8 51.4
16:45 1012 29.88 841 24.83 13 55.3 83 10.1 50.2
16:50 1012 29.88 841 24.83 11.6 52.9 88 9.7 49.4
16:55 1012 29.88 841 24.83 11.2 52.2 89 9.5 49
17:00 1012 29.88 841 24.83 11.4 52.6 83 8.6 47.5
17:05 1012 29.88 841 24.83 11.7 53.1 81 8.5 47.3
17:10 1012 29.88 841 24.83 11.9 53.5 82 9 48.1
17:15 1012 29.88 841 24.83 11.8 53.3 79 8.4 47.1
17:20 1012 29.88 842 24.86 11.6 53 81 8.4 47.2
17:25 1013 29.91 842 24.86 11.6 52.8 80 8.3 46.9
17:30 1013 29.91 842 24.86 11.5 52.7 82 8.5 47.3
17:35 1013 29.91 842 24.86 11.5 52.6 80 8.2 46.8
17:40 1013 29.91 842 24.86 11.4 52.6 80 8.2 46.7
17:45 1014 29.94 843 24.89 11.5 52.6 81 8.3 47
17:50 1014 29.94 843 24.89 11.5 52.6 80 8.2 46.8
17:55 1014 29.94 843 24.89 11.4 52.6 80 8 46.5
18:00 1014 29.94 843 24.89 11.4 52.6 78 7.8 46.1
18:05 1014 29.94 843 24.89 11.5 52.6 78 7.8 46
18:10 1014 29.94 843 24.89 11.5 52.6 80 8.2 46.7
18:15 1014 29.94 843 24.89 11.5 52.6 82 8.4 47.2
18:20 1014 29.94 843 24.89 11.4 52.5 81 8.4 47.1
18:25 1014 29.94 844 24.92 11.4 52.4 79 7.9 46.3
18:30 1015 29.97 844 24.92 11.2 52.2 81 8.2 46.7
18:35 1015 29.97 844 24.92 11 51.8 84 8.4 47
18:40 1015 29.97 844 24.92 10.8 51.5 84 8.2 46.7
18:45 1015 29.97 844 24.92 10.7 51.3 83 7.9 46.2
18:50 1015 29.97 844 24.92 10.7 51.2 79 7.2 45
18:55 1015 29.97 844 24.92 10.7 51.2 81 7.5 45.6
19:00 1015 29.97 844 24.92 10.6 51.2 78 7 44.7
19:05 1015 29.97 844 24.92 10.6 51.1 78 7 44.6
19:10 1015 29.97 844 24.92 10.5 51 81 7.5 45.5
19:15 1015 29.97 844 24.92 10.5 50.9 79 7 44.6
19:20 1015 29.97 844 24.92 10.5 50.8 79 7.1 44.7
19:25 1015 29.97 844 24.92 10.4 50.8 81 7.3 45.2
19:30 1015 29.97 844 24.92 10.4 50.6 81 7.2 44.9
19:35 1015 29.97 844 24.92 10.4 50.7 80 7.1 44.8
19:40 1015 29.97 844 24.92 10.4 50.6 81 7.3 45.1
19:45 1015 29.97 844 24.92 10.4 50.7 78 6.8 44.3
19:50 1015 29.97 844 24.92 10.5 51 77 6.7 44.1
19:55 1015 29.97 844 24.92 10.6 51.1 77 6.9 44.3
20:00 1015 29.97 844 24.92 10.6 51 77 6.8 44.2
20:05 1015 29.97 844 24.92 10.5 50.9 77 6.7 44.1
20:10 1015 29.97 844 24.92 10.6 51 78 6.9 44.3
20:15 1015 29.97 844 24.92 10.6 51.1 78 6.9 44.4
20:20 1015 29.97 844 24.92 10.6 51.1 79 7.2 44.9
20:25 1015 29.97 844 24.92 10.6 51 81 7.5 45.4
20:30 1015 29.97 844 24.92 10.4 50.7 83 7.6 45.7
20:35 1015 29.97 844 24.92 10.3 50.6 83 7.5 45.6
20:40 1015 29.97 844 24.92 10.3 50.5 83 7.4 45.4
20:45 1015 29.97 844 24.92 10.2 50.3 83 7.5 45.5
20:50 1015 29.97 844 24.92 10.1 50.2 85 7.7 45.8
20:55 1015 29.97 844 24.92 10.1 50.1 85 7.6 45.7
21:00 1014 29.94 844 24.92 9.9 49.9 86 7.8 46
21:05 1014 29.94 844 24.92 9.8 49.7 85 7.4 45.3
21:10 1014 29.94 844 24.92 9.8 49.7 86 7.5 45.6
21:15 1015 29.97 844 24.92 9.8 49.6 87 7.7 45.8
21:20 1015 29.97 844 24.92 9.6 49.3 88 7.7 45.9
21:25 1015 29.97 844 24.92 9.6 49.2 89 7.8 46
21:30 1015 29.97 844 24.92 9.5 49.1 87 7.5 45.6
21:35 1015 29.97 844 24.92 9.5 49.1 89 7.8 46
21:40 1015 29.97 844 24.92 9.4 49 89 7.7 45.9
21:45 1015 29.97 844 24.92 9.4 48.9 88 7.5 45.6
21:50 1015 29.97 844 24.92 9.4 48.8 86 7.2 45
21:55 1015 29.97 844 24.92 9.5 49.1 87 7.5 45.4
22:00 1015 29.97 844 24.92 9.6 49.3 84 7.1 44.7
22:05 1015 29.97 844 24.92 9.7 49.5 83 7 44.6
22:10 1015 29.97 845 24.95 9.8 49.7 83 7.1 44.8
22:15 1015 29.97 845 24.95 9.8 49.6 85 7.4 45.4
22:20 1016 30 845 24.95 9.4 49 88 7.5 45.5
22:25 1016 30 845 24.95 9.2 48.5 88 7.3 45.2
22:30 1016 30 845 24.95 9 48.2 88 7.2 44.9
22:35 1016 30 845 24.95 9 48.1 88 7.1 44.7
22:40 1016 30 845 24.95 9 48.2 89 7.4 45.2
22:45 1016 30 845 24.95 9 48.1 89 7.3 45.1
22:50 1016 30 845 24.95 8.9 48 89 7.2 45
22:55 1016 30 845 24.95 8.9 48 90 7.3 45.2
23:00 1016 30 845 24.95 8.8 47.9 91 7.4 45.3
23:05 1016 30 845 24.95 8.7 47.7 90 7.1 44.8
23:10 1016 30 845 24.95 8.9 48 87 6.8 44.3
23:15 1016 30 845 24.95 9 48.2 87 7 44.7
23:20 1016 30 845 24.95 9.2 48.5 84 6.6 43.9
23:25 1016 30 845 24.95 9.4 48.8 84 6.8 44.2
23:30 1016 30 845 24.95 9.4 48.9 84 6.9 44.4
23:35 1016 30 845 24.95 9.3 48.8 84 6.7 44.1
23:40 1016 30 845 24.95 9.2 48.6 84 6.7 44.1
23:45 1016 30 845 24.95 9.2 48.5 82 6.3 43.3
23:50 1016 30 845 24.95 9.3 48.7 81 6.2 43.2
23:55 1016 30 845 24.95 9.3 48.8 81 6.3 43.3
24:00 1016 30 845 24.95 9.3 48.7 80 6.1 42.9